Arch, NM

6:26 AM MST on March 03, 2015 (GMT -0700)
S of ENMU | Change Station
CLOSE
Current Station
Personal Weather Station
Location: Portales, NM
Elevation: 4078 ft
Nearby Weather Stations

Elev 4078 ft 34.17 °N, 103.35 °W | Updated 6 seconds ago

Partly Cloudy
Partly Cloudy
38.2 °F
Feels Like 38 °F
N
2.5
Wind Variable Wind from WNW
Gusts 4.0 mph

Today
High -- | Low -- °F
--% Chance of Precip.
Yesterday
High -- | Low -- °F
Precip. -- in
6:19 AM 5:51 PM
Waxing Gibbous, 96% visible
Pressure 29.91 in
Visibility 6.0 miles
Clouds Few 17000 ft
Windchill 38 °F
Dew Point 35 °F
Humidity 87%
Rainfall 0.00 in
Snow Depth Not available.
UV 0 out of 12
Pollen 7.90 out of 12
Air Quality Not available.
Flu Activity Not available.
METAR KCVS 031258Z AUTO 25005KT 6SM BR FEW170 01/01 A2989 RMK AO2 SLP126 T00110010 $

More Conditions Fewer Conditions

Pressure 29.91 in
Visibility 6.0 miles
Clouds Few 17000 ft
Windchill 38 °F
Dew Point 35 °F
Humidity 87%
Rainfall 0.00 in
Snow Depth Not available.
UV 0 out of 12
Pollen 7.90 out of 12
Air Quality Not available.
Flu Activity Not available.
METAR KCVS 031258Z AUTO 25005KT 6SM BR FEW170 01/01 A2989 RMK AO2 SLP126 T00110010 $

More Conditions Fewer Conditions

10-Day Weather Forecast

Almanac

Astronomy

Mar. 03, 2015 Rise Set
Actual Time
Civil Twilight
Nautical Twilight
Astronomical Twilight
Moon
Length of Visible Light
Length of Day
Tomorrow will be .
, % of the Moon is Illuminated

Today's Extremes

State Highs State Lows

Community

WunderPhotos

Upload Photos

1,802,100 photos uploaded!

WunderBlogs® & News

Nearby

Air Quality

  Air Quality AQ Index Pollutant
Not available.

Snow Depth

Station Depth Elevation

Earthquake Activity

City Distance Mag. Time & Date
Minimum magnitude displayed is 2.5.

Coastal Water Temperatures

Place Temperature

Nearby Weather Stations